KSLC/SLC METAR and TAF weather

Enter ICAO airport designator
Station Type Date Time Source
KSLC METAR 2021/03/05 18:54 UTC NOAA

KSLC 051854Z VRB03KT 10SM FEW250 13/M03 A3035 RMK AO2 SLP267 T01281028 $


Station Type Date Time Source
KSLC Decoded METAR 2021/03/05 18:54 UTC NOAA

SALT LAKE CITY INTERNATIONAL AIRPORT , UT, United States (KSLC) 40-47N 111-58W 1286M
Mar 05, 2021 - 01:54 PM EST / 2021.03.05 1854 UTC
Wind: Variable at 3 MPH (3 KT):0
Visibility: 10 mile(s):0
Sky conditions: mostly clear
Temperature: 55.0 F (12.8 C)
Dew Point: 27.0 F (-2.8 C)
Relative Humidity: 33%
Pressure (altimeter): 30.35 in. Hg (1027 hPa)
ob: KSLC 051854Z VRB03KT 10SM FEW250 13/M03 A3035 RMK AO2 SLP267 T01281028
cycle: 19

Station Type Date Time Source
KSLC TAF 2021/03/05 18:36 UTC NOAA

TAF KSLC 051733Z 0518/0624 15009KT P6SM SKC
FM052100 30008KT P6SM FEW250
FM060300 15007KT P6SM SCT250
FM061600 17014KT P6SM BKN250

Example: see airport list